(°F)
46°
46°
45°
45°
45°
46°
48°
(°F)
44°
43°
42°
41°
40°
41°
43°
NNW
N
N
N
NNE
NNE
NNE
(mph)
3-4
3-6
4-7
5-10
6-11
7-14
8-17
(in)
0
0
0
0
0
0
0
(%)
8
8
0
0
0
0
0

Sun elevation

/ -57.3°
sun-icon
UV 3
07:21
17:18
Waning gibbous moon (190°)
18:01
08:04

METAR for Port Elizabeth Airport (FAPE)

Time Conditions Temperature/
Dewpoint
Wind Visibility Weather Clouds Pressure Change Raw
VFR 46.4°F / 44.6°F 270º 4kt >10km - Clouds and Visibility OK 1019 No Significant change FAPE 250000Z 27004KT CAVOK 08/07 Q1019 NOSIG
MVFR 46.4°F / 44.6°F 270º 4kt 6000m - Few Clouds 4000ft 1020 No Significant change FAPE 242300Z 27004KT 6000 FEW040 08/07 Q1020 NOSIG
MVFR 46.4°F / 46.4°F 260º 4kt 7000m - Clear 1020 No Significant change FAPE 242200Z 26004KT 7000 NSC 08/08 Q1020 NOSIG
MVFR 48.2°F / 46.4°F 280º 3kt 6000m - Few Clouds 2700ft 1020 No Significant change FAPE 242100Z 28003KT 6000 2700 FEW027 09/08 Q1020 NOSIG
IFR 51.8°F / 50°F 280º 3kt 3900m - Few Clouds 1600ft 1020 No Significant change FAPE 242046Z AUTO 28003KT 3900 1100 // FEW016/// SCT240/// 11/10 Q1020 NOSIG
MVFR 51.8°F / 50°F 300º 2kt 8000m - Few Clouds 4600ft 1021 No Significant change FAPE 242000Z AUTO 30002KT 8000 FEW046/// SCT240/// 11/10 Q1021 NOSIG
VFR 51.8°F / 50°F 250º 4kt >10km - Few Clouds 1800ft 1021 No Significant change FAPE 241900Z AUTO 25004KT 9999 FEW018/// OVC045/// 11/10 Q1021 NOSIG
VFR 53.6°F / 51.8°F 210º 3kt >10km - Clouds and Visibility OK 1021 No Significant change FAPE 241800Z 21003KT CAVOK 12/11 Q1021 NOSIG
VFR 57.2°F / 51.8°F 200º variable 160º to 230º 3kt >10km - Clouds and Visibility OK 1021 No Significant change FAPE 241700Z 20003KT 160V230 CAVOK 14/11 Q1021 NOSIG
VFR 57.2°F / 51.8°F 210º 4kt >10km - Clouds and Visibility OK 1021 No Significant change FAPE 241600Z 21004KT CAVOK 14/11 Q1021 NOSIG
VFR 59°F / 51.8°F 220º 6kt >10km - Scattered Clouds 4800ft 1020 No Significant change FAPE 241500Z 22006KT 9999 SCT048 15/11 Q1020 NOSIG
VFR 59°F / 51.8°F 220º 5kt >10km - Clouds and Visibility OK 1020 No Significant change FAPE 241400Z 22005KT CAVOK 15/11 Q1020 NOSIG
VFR 59°F / 51.8°F 220º 7kt >10km - Scattered Clouds 4800ft 1020 No Significant change FAPE 241300Z 22007KT 9999 SCT048 15/11 Q1020 NOSIG
VFR 60.8°F / 51.8°F 220º variable 190º to 250º 8kt >10km - Clouds and Visibility OK 1020 No Significant change FAPE 241200Z 22008KT 190V250 CAVOK 16/11 Q1020 NOSIG
VFR 60.8°F / 51.8°F 230º variable 200º to 260º 9kt >10km - Clouds and Visibility OK 1021 No Significant change FAPE 241100Z 23009KT 200V260 CAVOK 16/11 Q1021 NOSIG
VFR 60.8°F / 51.8°F 250º 7kt >10km - Clouds and Visibility OK 1022 No Significant change FAPE 241000Z 25007KT CAVOK 16/11 Q1022 NOSIG
VFR 59°F / 51.8°F 240º variable 200º to 260º 8kt >10km - Clouds and Visibility OK 1023 No Significant change FAPE 240900Z 24008KT 200V260 CAVOK 15/11 Q1023 NOSIG
VFR 59°F / 51.8°F 250º 8kt >10km - Clouds and Visibility OK 1023 No Significant change FAPE 240800Z 25008KT CAVOK 15/11 Q1023 NOSIG
VFR 59°F / 51.8°F 240º 8kt >10km - Clouds and Visibility OK 1023 No Significant change FAPE 240700Z 24008KT CAVOK 15/11 Q1023 NOSIG
VFR 55.4°F / 50°F 240º 6kt >10km - Clouds and Visibility OK 1022 No Significant change FAPE 240600Z 24006KT CAVOK 13/10 Q1022 NOSIG
VFR 53.6°F / 48.2°F 240º 5kt >10km - Clouds and Visibility OK 1021 No Significant change FAPE 240500Z 24005KT CAVOK 12/09 Q1021 NOSIG
VFR 55.4°F / 50°F 250º 7kt >10km - Clouds and Visibility OK 1021 No Significant change FAPE 240400Z 25007KT CAVOK 13/10 Q1021 NOSIG
VFR 57.2°F / 51.8°F 250º 9kt >10km - Clouds and Visibility OK 1021 No Significant change FAPE 240300Z 25009KT CAVOK 14/11 Q1021 NOSIG
VFR 55.4°F / 51.8°F 250º 10kt >10km - Clouds and Visibility OK 1020 No Significant change FAPE 240100Z 25010KT CAVOK 13/11 Q1020 NOSIG

VFR

46.4°F / 44.6°F

[More]
Wind 270º 4kt
Visibility >10km
Weather -
Clouds Clouds and Visibility OK
Pressure 1019
Change No Significant change
Raw FAPE 250000Z 27004KT CAVOK 08/07 Q1019 NOSIG

MVFR

46.4°F / 44.6°F

[More]
Wind 270º 4kt
Visibility 6000m
Weather -
Clouds Few Clouds 4000ft
Pressure 1020
Change No Significant change
Raw FAPE 242300Z 27004KT 6000 FEW040 08/07 Q1020 NOSIG

MVFR

46.4°F / 46.4°F

[More]
Wind 260º 4kt
Visibility 7000m
Weather -
Clouds Clear
Pressure 1020
Change No Significant change
Raw FAPE 242200Z 26004KT 7000 NSC 08/08 Q1020 NOSIG

MVFR

48.2°F / 46.4°F

[More]
Wind 280º 3kt
Visibility 6000m
Weather -
Clouds Few Clouds 2700ft
Pressure 1020
Change No Significant change
Raw FAPE 242100Z 28003KT 6000 2700 FEW027 09/08 Q1020 NOSIG

IFR

51.8°F / 50°F

[More]
Wind 280º 3kt
Visibility 3900m
Weather -
Clouds Few Clouds 1600ft
Pressure 1020
Change No Significant change
Raw FAPE 242046Z AUTO 28003KT 3900 1100 // FEW016/// SCT240/// 11/10 Q1020 NOSIG

MVFR

51.8°F / 50°F

[More]
Wind 300º 2kt
Visibility 8000m
Weather -
Clouds Few Clouds 4600ft
Pressure 1021
Change No Significant change
Raw FAPE 242000Z AUTO 30002KT 8000 FEW046/// SCT240/// 11/10 Q1021 NOSIG

VFR

51.8°F / 50°F

[More]
Wind 250º 4kt
Visibility >10km
Weather -
Clouds Few Clouds 1800ft
Pressure 1021
Change No Significant change
Raw FAPE 241900Z AUTO 25004KT 9999 FEW018/// OVC045/// 11/10 Q1021 NOSIG

VFR

53.6°F / 51.8°F

[More]
Wind 210º 3kt
Visibility >10km
Weather -
Clouds Clouds and Visibility OK
Pressure 1021
Change No Significant change
Raw FAPE 241800Z 21003KT CAVOK 12/11 Q1021 NOSIG

VFR

57.2°F / 51.8°F

[More]
Wind 200º variable 160º to 230º 3kt
Visibility >10km
Weather -
Clouds Clouds and Visibility OK
Pressure 1021
Change No Significant change
Raw FAPE 241700Z 20003KT 160V230 CAVOK 14/11 Q1021 NOSIG

VFR

57.2°F / 51.8°F

[More]
Wind 210º 4kt
Visibility >10km
Weather -
Clouds Clouds and Visibility OK
Pressure 1021
Change No Significant change
Raw FAPE 241600Z 21004KT CAVOK 14/11 Q1021 NOSIG

VFR

59°F / 51.8°F

[More]
Wind 220º 6kt
Visibility >10km
Weather -
Clouds Scattered Clouds 4800ft
Pressure 1020
Change No Significant change
Raw FAPE 241500Z 22006KT 9999 SCT048 15/11 Q1020 NOSIG

VFR

59°F / 51.8°F

[More]
Wind 220º 5kt
Visibility >10km
Weather -
Clouds Clouds and Visibility OK
Pressure 1020
Change No Significant change
Raw FAPE 241400Z 22005KT CAVOK 15/11 Q1020 NOSIG

VFR

59°F / 51.8°F

[More]
Wind 220º 7kt
Visibility >10km
Weather -
Clouds Scattered Clouds 4800ft
Pressure 1020
Change No Significant change
Raw FAPE 241300Z 22007KT 9999 SCT048 15/11 Q1020 NOSIG

VFR

60.8°F / 51.8°F

[More]
Wind 220º variable 190º to 250º 8kt
Visibility >10km
Weather -
Clouds Clouds and Visibility OK
Pressure 1020
Change No Significant change
Raw FAPE 241200Z 22008KT 190V250 CAVOK 16/11 Q1020 NOSIG

VFR

60.8°F / 51.8°F

[More]
Wind 230º variable 200º to 260º 9kt
Visibility >10km
Weather -
Clouds Clouds and Visibility OK
Pressure 1021
Change No Significant change
Raw FAPE 241100Z 23009KT 200V260 CAVOK 16/11 Q1021 NOSIG

VFR

60.8°F / 51.8°F

[More]
Wind 250º 7kt
Visibility >10km
Weather -
Clouds Clouds and Visibility OK
Pressure 1022
Change No Significant change
Raw FAPE 241000Z 25007KT CAVOK 16/11 Q1022 NOSIG

VFR

59°F / 51.8°F

[More]
Wind 240º variable 200º to 260º 8kt
Visibility >10km
Weather -
Clouds Clouds and Visibility OK
Pressure 1023
Change No Significant change
Raw FAPE 240900Z 24008KT 200V260 CAVOK 15/11 Q1023 NOSIG

VFR

59°F / 51.8°F

[More]
Wind 250º 8kt
Visibility >10km
Weather -
Clouds Clouds and Visibility OK
Pressure 1023
Change No Significant change
Raw FAPE 240800Z 25008KT CAVOK 15/11 Q1023 NOSIG

VFR

59°F / 51.8°F

[More]
Wind 240º 8kt
Visibility >10km
Weather -
Clouds Clouds and Visibility OK
Pressure 1023
Change No Significant change
Raw FAPE 240700Z 24008KT CAVOK 15/11 Q1023 NOSIG

VFR

55.4°F / 50°F

[More]
Wind 240º 6kt
Visibility >10km
Weather -
Clouds Clouds and Visibility OK
Pressure 1022
Change No Significant change
Raw FAPE 240600Z 24006KT CAVOK 13/10 Q1022 NOSIG

VFR

53.6°F / 48.2°F

[More]
Wind 240º 5kt
Visibility >10km
Weather -
Clouds Clouds and Visibility OK
Pressure 1021
Change No Significant change
Raw FAPE 240500Z 24005KT CAVOK 12/09 Q1021 NOSIG

VFR

55.4°F / 50°F

[More]
Wind 250º 7kt
Visibility >10km
Weather -
Clouds Clouds and Visibility OK
Pressure 1021
Change No Significant change
Raw FAPE 240400Z 25007KT CAVOK 13/10 Q1021 NOSIG

VFR

57.2°F / 51.8°F

[More]
Wind 250º 9kt
Visibility >10km
Weather -
Clouds Clouds and Visibility OK
Pressure 1021
Change No Significant change
Raw FAPE 240300Z 25009KT CAVOK 14/11 Q1021 NOSIG

VFR

55.4°F / 51.8°F

[More]
Wind 250º 10kt
Visibility >10km
Weather -
Clouds Clouds and Visibility OK
Pressure 1020
Change No Significant change
Raw FAPE 240100Z 25010KT CAVOK 13/11 Q1020 NOSIG

TAF for Port Elizabeth Airport (FAPE)

From till


Maximum Temperature 22ºC on . Minimum Temperature 9ºC on .
From till Wind 10º 8kt. Visibility 10km or more. Scattered Clouds 1500ft.
With 30% probability, Temporarly from till Visibility 3000m. Mist . Broken Clouds 800ft.
Becoming from till Wind 10º 8kt. Visibility 10km or more. Nil Significant Cloud.
Becoming from till Wind variable 3kt. Visibility 10km or more. Nil Significant Cloud.
Becoming from till Wind 240º 8kt. Visibility 10km or more. Nil Significant Cloud.

Raw: TAF FAPE 242200Z 2500/2524 01008KT 9999 SCT015 TX22/2512Z TN09/2503Z PROB30 TEMPO 2502/2506 3000 BR BKN008 BECMG 2506/2508 CAVOK BECMG 2514/2516 VRB03KT BECMG 2516/2518 24008KT

Current satellite and rain images for Port Elizabeth Airport, Republic of South Africa

The location marker is placed on Port Elizabeth Airport. [More]

The real-time satellite image combines visible light during daytime with infrared radiation during nighttime. At night, the image is not dark as infrared radiation can detect temperature differences. Unfortunately, low clouds and fog are difficult to distinguish from ground temperatures and thus can be almost invisible during the night. Meteosat satellite images for Europe are updated in real-time every 5 minutes. GOES-16/GOES-17 (North & South America) and Himawari (Asia) images update every 10 minutes.

Precipitation is estimated from radar and satellites. At night precipitation estimates from satellites are less accurate than during daytime. Orange crosses mark places where lightning was detected (over Europe).

Copyright 2021 EUMETSAT / meteoblue. Lightning data provided by nowcast.

Radar and precipitation nowcast for Port Elizabeth Airport

The location marker is placed on Port Elizabeth Airport. This animation shows the precipitation radar for the last hour, as well as a 1h forecast. Drizzle or light snow fall might be invisible for the radar. Precipitation intensity is colour coded, ranging from light blue to heavy purple.